»·PEaware :: ASA101 KOAK-KLAX

ASA101 :: KOAK-KLAX

FLIGHT INFORMATION

Flight Status: Arrived
Operator:
Alaska Airlines
More flights by this operator :: More flights under this callsign
Pilot: John N. (18861)
Aircraft: BOEING 737-800
(B738)
More flights by this aircraft type
Origin: KOAK Metro Oakland Intl
United States
Destination: KLAX Los Angeles Intl
United States
More flights between these airports :: More routes between these airports
Route: +CNDEL3 EBAYE AVE SADDE8
File this flight plan on PilotEdge
Remarks:
Altitude:
(Current/Filed)
350ft
Speed:
(Current/Filed)
450kts
Departed: 12-Jun-18 06:44 PM
Arrived: 12-Jun-18 07:44 PM
Distance/Time
Traveled:
292nm/1:00
Distance/Time
To Go:
Arrived

Flight Plot

Page will automatically refresh every two minutes.

Flight plan parsing failed; only flown route is shown


Map Options




Map Legend


Flown Route
Filed Route
Departure Airport
Arrival Airport
Navaid (VOR, NDB)
Fix

Horizontal Profiles

Position Reports

Time Latitude Longitude Heading Altitude Ground
Speed
12-Jun-18 18:25 37.711336 -122.211507 34 13ft 0kts
12-Jun-18 18:26 37.711337 -122.211506 34 13ft 0kts
12-Jun-18 18:27 37.711338 -122.211506 34 13ft 0kts
12-Jun-18 18:28 37.711339 -122.211505 34 13ft 0kts
12-Jun-18 18:29 37.711340 -122.211504 34 13ft 0kts
12-Jun-18 18:30 37.711340 -122.211503 34 13ft 0kts
12-Jun-18 18:31 37.711341 -122.211502 34 13ft 0kts
12-Jun-18 18:32 37.711342 -122.211502 34 13ft 0kts
12-Jun-18 18:33 37.711343 -122.211501 34 13ft 0kts
12-Jun-18 18:34 37.711344 -122.211500 34 13ft 0kts
12-Jun-18 18:35 37.711046 -122.211765 35 13ft 0kts
12-Jun-18 18:36 37.711297 -122.211982 255 13ft 0kts
12-Jun-18 18:37 37.711297 -122.211984 255 13ft 0kts
12-Jun-18 18:38 37.711297 -122.211986 255 13ft 0kts
12-Jun-18 18:39 37.711032 -122.212444 222 13ft 0kts
12-Jun-18 18:40 37.708565 -122.215626 235 13ft 27kts
12-Jun-18 18:41 37.704459 -122.214692 133 13ft 1kts
12-Jun-18 18:42 37.702534 -122.213610 193 13ft 0kts
12-Jun-18 18:43 37.701798 -122.214647 289 13ft 0kts
12-Jun-18 18:44 37.717215 -122.236476 315 498ft 167kts
12-Jun-18 18:45 37.752079 -122.282418 285 2827ft 209kts
12-Jun-18 18:46 37.718117 -122.348587 208 2650ft 244kts
12-Jun-18 18:47 37.650329 -122.353939 164 5554ft 261kts
12-Jun-18 18:48 37.592065 -122.406412 213 7833ft 288kts
12-Jun-18 18:49 37.518985 -122.454973 200 10002ft 300kts
12-Jun-18 18:50 37.447364 -122.419733 130 10690ft 338kts
12-Jun-18 18:51 37.405069 -122.360537 131 11824ft 365kts
12-Jun-18 18:52 37.340883 -122.272423 132 14169ft 376kts
12-Jun-18 18:53 37.268606 -122.174468 133 16544ft 389kts
12-Jun-18 18:54 37.194055 -122.073354 133 18707ft 402kts
12-Jun-18 18:55 37.142497 -122.003752 133 20009ft 411kts
12-Jun-18 18:56 37.063338 -121.897931 134 21822ft 423kts
12-Jun-18 18:57 36.981859 -121.789116 134 23419ft 434kts
12-Jun-18 18:58 36.903891 -121.685197 135 24830ft 443kts
12-Jun-18 18:59 36.818784 -121.572088 135 26270ft 451kts
12-Jun-18 19:00 36.731834 -121.456917 135 27616ft 458kts
12-Jun-18 19:01 36.643725 -121.340481 134 28858ft 465kts
12-Jun-18 19:02 36.554576 -121.223041 135 30243ft 465kts
12-Jun-18 19:03 36.471592 -121.114471 135 31601ft 463kts
12-Jun-18 19:04 36.385195 -120.996576 131 32963ft 461kts
12-Jun-18 19:05 36.376254 -120.983607 131 33106ft 461kts
12-Jun-18 19:06 36.293020 -120.863742 131 34386ft 458kts
12-Jun-18 19:07 36.219275 -120.758357 131 34822ft 461kts
12-Jun-18 19:08 36.135921 -120.639017 131 34825ft 456kts
12-Jun-18 19:09 36.052685 -120.520326 131 34836ft 456kts
12-Jun-18 19:10 35.969543 -120.402576 131 34827ft 454kts
12-Jun-18 19:11 35.886431 -120.285516 131 34826ft 454kts
12-Jun-18 19:12 35.799783 -120.172005 135 34825ft 453kts
12-Jun-18 19:13 35.723127 -120.075044 135 34826ft 453kts
12-Jun-18 19:14 35.633042 -119.966967 143 34833ft 452kts
12-Jun-18 19:15 35.530131 -119.877481 145 34835ft 452kts
12-Jun-18 19:16 35.427439 -119.788710 145 34718ft 454kts
12-Jun-18 19:17 35.324004 -119.699847 145 32198ft 453kts
12-Jun-18 19:18 35.219712 -119.610532 145 29712ft 459kts
12-Jun-18 19:19 35.124971 -119.529719 145 27649ft 466kts
12-Jun-18 19:20 35.017480 -119.438285 145 25345ft 471kts
12-Jun-18 19:21 34.911658 -119.348133 145 24010ft 457kts
12-Jun-18 19:22 34.827363 -119.276507 145 23942ft 427kts
12-Jun-18 19:23 34.731746 -119.195816 145 21597ft 418kts
12-Jun-18 19:24 34.646392 -119.123982 145 19369ft 390kts
12-Jun-18 19:25 34.564182 -119.054737 145 16277ft 387kts
12-Jun-18 19:26 34.478311 -118.982823 145 13842ft 361kts
12-Jun-18 19:27 34.398591 -118.916259 145 12044ft 337kts
12-Jun-18 19:28 34.316394 -118.865272 163 11881ft 337kts
12-Jun-18 19:29 34.234434 -118.836166 163 11851ft 323kts
12-Jun-18 19:30 34.149665 -118.805155 162 10795ft 307kts
12-Jun-18 19:31 34.074684 -118.777703 162 8999ft 313kts
12-Jun-18 19:32 34.030683 -118.702385 94 7733ft 280kts
12-Jun-18 19:33 34.025600 -118.614444 97 6956ft 243kts
12-Jun-18 19:34 34.017876 -118.536596 97 6974ft 236kts
12-Jun-18 19:35 34.011278 -118.467593 97 7014ft 237kts
12-Jun-18 19:36 34.016041 -118.387164 82 5939ft 244kts
12-Jun-18 19:37 34.025506 -118.311251 82 4920ft 203kts
12-Jun-18 19:38 34.026583 -118.257049 123 4673ft 180kts
12-Jun-18 19:39 33.991411 -118.215878 171 3828ft 172kts
12-Jun-18 19:40 33.966404 -118.264066 260 2356ft 195kts
12-Jun-18 19:41 33.960572 -118.319825 262 1481ft 144kts
12-Jun-18 19:42 33.955856 -118.365855 263 731ft 136kts
12-Jun-18 19:43 33.951283 -118.410511 263 134ft 114kts
12-Jun-18 19:44 33.949789 -118.418580 230 134ft 0kts
12-Jun-18 19:45 33.947371 -118.422348 233 134ft 26kts
12-Jun-18 19:46 33.947682 -118.414737 81 134ft 45kts

Navigation Log

Ident Type
Flight plan parsing failed, navigation log unavailable